createdAt,value
2023-02-25T00:00:55.167Z,5.54
2023-02-25T00:03:22.188Z,5.55
2023-02-25T00:05:49.070Z,5.56
2023-02-25T00:08:16.003Z,5.56
2023-02-25T00:10:42.871Z,5.59
2023-02-25T00:13:18.106Z,5.59
2023-02-25T00:15:45.520Z,5.61
2023-02-25T00:18:12.510Z,5.66
2023-02-25T00:20:40.576Z,5.68
2023-02-25T00:23:07.632Z,5.69
2023-02-25T00:25:34.673Z,5.70
2023-02-25T00:28:05.571Z,5.66
2023-02-25T00:30:35.647Z,5.64
2023-02-25T00:33:02.680Z,5.59
2023-02-25T00:35:29.619Z,5.53
2023-02-25T00:38:04.002Z,5.46
2023-02-25T00:40:39.507Z,5.43
2023-02-25T00:43:07.653Z,5.39
2023-02-25T00:45:34.445Z,5.37
2023-02-25T00:48:01.462Z,5.31
2023-02-25T00:50:28.669Z,5.28
2023-02-25T00:52:55.347Z,5.25
2023-02-25T00:55:22.134Z,5.21
2023-02-25T00:57:48.979Z,5.18
2023-02-25T01:00:16.493Z,5.13
2023-02-25T01:02:44.927Z,5.12
2023-02-25T01:05:13.516Z,5.11
2023-02-25T01:07:41.905Z,5.08
2023-02-25T01:10:10.148Z,5.06
2023-02-25T01:12:37.420Z,5.02
2023-02-25T01:15:04.819Z,4.98
2023-02-25T01:17:34.238Z,4.92
2023-02-25T01:20:01.060Z,4.87
2023-02-25T01:22:28.062Z,4.85
2023-02-25T01:24:55.414Z,4.84
2023-02-25T01:27:23.253Z,4.87
2023-02-25T01:29:50.159Z,4.88
2023-02-25T01:32:17.411Z,4.86
2023-02-25T01:34:44.370Z,4.83
2023-02-25T01:37:11.229Z,4.79
2023-02-25T01:39:40.980Z,4.76
2023-02-25T01:42:14.928Z,4.75
2023-02-25T01:45:16.478Z,4.73
2023-02-25T01:47:49.352Z,4.70
2023-02-25T01:50:21.411Z,4.68
2023-02-25T01:52:50.560Z,4.63
2023-02-25T01:55:17.825Z,4.61
2023-02-25T01:57:45.294Z,4.58
2023-02-25T02:00:15.691Z,4.56
2023-02-25T02:02:46.894Z,4.59
2023-02-25T02:05:14.627Z,4.63
2023-02-25T02:07:42.283Z,4.64
2023-02-25T02:10:10.212Z,4.64
2023-02-25T02:12:41.914Z,4.63
2023-02-25T02:15:12.741Z,4.59
2023-02-25T02:18:16.959Z,4.57
2023-02-25T02:20:43.808Z,4.54
2023-02-25T02:23:47.556Z,4.51
2023-02-25T02:26:35.191Z,4.45
2023-02-25T02:29:37.828Z,4.42
2023-02-25T02:32:15.729Z,4.38
2023-02-25T02:34:49.290Z,4.38
2023-02-25T02:37:28.199Z,4.38
2023-02-25T02:40:16.009Z,4.36
2023-02-25T02:42:55.754Z,4.34
2023-02-25T02:45:34.002Z,4.34
2023-02-25T02:48:08.144Z,4.34
2023-02-25T02:50:45.866Z,4.36
2023-02-25T02:53:19.562Z,4.40
2023-02-25T02:55:51.875Z,4.40
2023-02-25T02:58:28.150Z,4.39
2023-02-25T03:01:03.630Z,4.43
2023-02-25T03:03:38.986Z,4.43
2023-02-25T03:06:12.273Z,4.46
2023-02-25T03:08:55.522Z,4.46
2023-02-25T03:11:23.760Z,4.43
2023-02-25T03:13:51.470Z,4.47
2023-02-25T03:16:27.331Z,4.43
2023-02-25T03:19:00.908Z,4.41
2023-02-25T03:21:37.553Z,4.40
2023-02-25T03:24:07.795Z,4.37
2023-02-25T03:26:35.314Z,4.36
2023-02-25T03:29:03.563Z,4.39
2023-02-25T03:31:45.214Z,4.39
2023-02-25T03:34:20.794Z,4.42
2023-02-25T03:36:56.472Z,4.42
2023-02-25T03:39:33.345Z,4.42
2023-02-25T03:42:03.142Z,4.51
2023-02-25T03:44:35.204Z,4.56
2023-02-25T03:47:05.156Z,4.62
2023-02-25T03:49:43.426Z,4.66
2023-02-25T03:52:16.485Z,4.69
2023-02-25T03:54:43.561Z,4.72
2023-02-25T03:57:10.510Z,4.79
2023-02-25T03:59:37.459Z,5.00
2023-02-25T04:02:04.780Z,5.13
2023-02-25T04:04:31.961Z,5.22
2023-02-25T04:06:58.970Z,5.32
2023-02-25T04:09:25.946Z,5.34
2023-02-25T04:11:56.492Z,5.32
2023-02-25T04:14:24.301Z,5.25
2023-02-25T04:16:51.262Z,5.22
2023-02-25T04:19:18.349Z,5.18
2023-02-25T04:21:45.442Z,5.14
2023-02-25T04:24:12.201Z,5.09
2023-02-25T04:26:39.104Z,5.08
2023-02-25T04:29:06.214Z,5.07
2023-02-25T04:31:33.198Z,5.03
2023-02-25T04:34:00.173Z,4.95
2023-02-25T04:36:35.500Z,4.89
2023-02-25T04:39:05.016Z,4.86
2023-02-25T04:41:35.122Z,4.85
2023-02-25T04:44:03.624Z,4.84
2023-02-25T04:46:31.430Z,4.82
2023-02-25T04:48:58.778Z,4.78
2023-02-25T04:51:25.637Z,4.77
2023-02-25T04:53:52.986Z,4.74
2023-02-25T04:56:20.029Z,4.71
2023-02-25T04:58:46.911Z,4.76
2023-02-25T05:01:14.470Z,4.81
2023-02-25T05:03:41.828Z,4.79
2023-02-25T05:06:09.176Z,4.84
2023-02-25T05:08:36.655Z,4.90
2023-02-25T05:11:06.373Z,4.94
2023-02-25T05:13:33.468Z,4.95
2023-02-25T05:16:10.002Z,4.93
2023-02-25T05:18:41.643Z,4.91
2023-02-25T05:21:15.181Z,4.91
2023-02-25T05:23:44.218Z,4.91
2023-02-25T05:26:13.190Z,4.91
2023-02-25T05:28:40.354Z,4.96
2023-02-25T05:31:10.496Z,5.04
2023-02-25T05:33:39.476Z,5.12
2023-02-25T05:36:08.852Z,5.16
2023-02-25T05:38:36.561Z,5.23
2023-02-25T05:41:07.796Z,5.38
2023-02-25T05:43:36.423Z,5.50
2023-02-25T05:46:04.301Z,5.58
2023-02-25T05:48:32.208Z,5.63
2023-02-25T05:51:01.852Z,5.74
2023-02-25T05:53:29.128Z,5.92
2023-02-25T05:55:56.464Z,6.02
2023-02-25T05:58:23.368Z,6.13
2023-02-25T06:00:51.283Z,6.23
2023-02-25T06:03:19.890Z,6.39
2023-02-25T06:05:48.099Z,6.49
2023-02-25T06:08:15.740Z,6.60
2023-02-25T06:10:42.967Z,6.72
2023-02-25T06:13:11.642Z,6.87
2023-02-25T06:15:42.073Z,6.98
2023-02-25T06:18:09.992Z,7.06
2023-02-25T06:20:39.115Z,7.16
2023-02-25T06:23:06.192Z,7.20
2023-02-25T06:25:33.108Z,7.23
2023-02-25T06:28:01.070Z,7.28
2023-02-25T06:30:29.922Z,7.35
2023-02-25T06:32:57.735Z,7.43
2023-02-25T06:35:24.887Z,7.45
2023-02-25T06:37:58.137Z,7.46
2023-02-25T06:40:28.526Z,7.48
2023-02-25T06:42:56.110Z,7.48
2023-02-25T06:45:23.589Z,7.51
2023-02-25T06:47:50.785Z,7.58
2023-02-25T06:50:18.095Z,7.65
2023-02-25T06:52:45.391Z,7.74
2023-02-25T06:55:12.381Z,7.85
2023-02-25T06:57:42.899Z,7.99
2023-02-25T07:00:12.196Z,8.09
2023-02-25T07:02:39.651Z,8.16
2023-02-25T07:05:07.002Z,8.23
2023-02-25T07:07:34.701Z,8.27
2023-02-25T07:10:01.607Z,8.32
2023-02-25T07:12:29.103Z,8.38
2023-02-25T07:14:58.362Z,8.44
2023-02-25T07:17:25.915Z,8.47
2023-02-25T07:19:53.301Z,8.54
2023-02-25T07:22:21.283Z,8.60
2023-02-25T07:24:50.993Z,8.68
2023-02-25T07:27:18.856Z,8.76
2023-02-25T07:29:46.096Z,8.84
2023-02-25T07:32:13.484Z,8.93
2023-02-25T07:34:42.559Z,9.04
2023-02-25T07:37:12.103Z,9.14
2023-02-25T07:39:40.833Z,9.22
2023-02-25T07:42:08.970Z,9.27
2023-02-25T07:44:37.031Z,9.38
2023-02-25T07:47:04.540Z,9.48
2023-02-25T07:49:31.784Z,9.58
2023-02-25T07:52:00.684Z,9.69
2023-02-25T07:54:29.263Z,9.81
2023-02-25T07:56:56.903Z,9.94
2023-02-25T07:59:23.995Z,10.07
2023-02-25T08:01:51.646Z,10.17
2023-02-25T08:04:18.823Z,10.27
2023-02-25T08:06:46.947Z,10.36
2023-02-25T08:09:15.319Z,10.43
2023-02-25T08:11:42.646Z,10.52
2023-02-25T08:14:10.782Z,10.53
2023-02-25T08:16:39.194Z,10.62
2023-02-25T08:19:07.998Z,10.70
2023-02-25T08:21:37.079Z,10.82
2023-02-25T08:24:07.777Z,10.85
2023-02-25T08:26:36.094Z,10.93
2023-02-25T08:29:04.257Z,10.97
2023-02-25T08:31:31.432Z,11.05
2023-02-25T08:33:59.288Z,11.10
2023-02-25T08:36:30.862Z,11.17
2023-02-25T08:38:59.785Z,11.28
2023-02-25T08:41:31.332Z,11.34
2023-02-25T08:44:01.608Z,11.44
2023-02-25T08:46:32.291Z,11.50
2023-02-25T08:49:00.203Z,11.62
2023-02-25T08:51:33.498Z,11.71
2023-02-25T08:54:07.889Z,11.77
2023-02-25T08:56:36.303Z,11.82
2023-02-25T08:59:05.130Z,11.94
2023-02-25T09:01:45.118Z,11.99
2023-02-25T09:04:17.246Z,12.00
2023-02-25T09:06:48.330Z,12.08
2023-02-25T09:09:19.445Z,12.20
2023-02-25T09:11:49.165Z,12.23
2023-02-25T09:14:16.895Z,12.30
2023-02-25T09:16:43.971Z,12.39
2023-02-25T09:19:11.965Z,12.41
2023-02-25T09:21:42.622Z,12.50
2023-02-25T09:24:10.197Z,12.55
2023-02-25T09:26:37.553Z,12.63
2023-02-25T09:29:10.183Z,12.68
2023-02-25T09:31:39.080Z,12.78
2023-02-25T09:34:09.782Z,12.80
2023-02-25T09:36:37.567Z,12.87
2023-02-25T09:39:09.539Z,12.94
2023-02-25T09:41:45.786Z,12.93
2023-02-25T09:44:40.826Z,12.88
2023-02-25T09:47:19.572Z,12.90
2023-02-25T09:50:08.001Z,12.93
2023-02-25T09:52:44.646Z,12.96
2023-02-25T09:55:23.210Z,13.00
2023-02-25T09:58:31.288Z,13.07
2023-02-25T10:01:04.702Z,13.11
2023-02-25T10:03:47.541Z,13.14
2023-02-25T10:06:24.970Z,13.19
2023-02-25T10:09:13.489Z,13.22
2023-02-25T10:12:23.480Z,13.32
2023-02-25T10:15:15.420Z,13.33
2023-02-25T10:18:13.649Z,13.38
2023-02-25T10:21:03.722Z,13.45
2023-02-25T10:23:55.164Z,13.56
2023-02-25T10:26:31.118Z,13.68
2023-02-25T10:29:09.185Z,13.78
2023-02-25T10:31:39.318Z,13.87
2023-02-25T10:34:28.558Z,13.99
2023-02-25T10:36:58.154Z,14.12
2023-02-25T10:39:28.066Z,14.22
2023-02-25T10:41:55.779Z,14.42
2023-02-25T10:44:28.113Z,14.53
2023-02-25T10:47:03.726Z,14.64
2023-02-25T10:49:38.762Z,14.76
2023-02-25T10:52:19.789Z,14.91
2023-02-25T10:54:55.627Z,15.01
2023-02-25T10:57:34.570Z,15.04
2023-02-25T11:00:22.432Z,15.13
2023-02-25T11:02:51.945Z,15.13
2023-02-25T11:05:41.175Z,15.16
2023-02-25T11:08:27.472Z,15.19
2023-02-25T11:11:20.256Z,15.17
2023-02-25T11:14:07.665Z,15.17
2023-02-25T11:16:39.919Z,15.20
2023-02-25T11:19:19.593Z,15.22
2023-02-25T11:21:47.506Z,15.26
2023-02-25T11:24:34.057Z,15.36
2023-02-25T11:27:05.109Z,15.37
2023-02-25T11:29:39.419Z,15.48
2023-02-25T11:32:13.154Z,15.59
2023-02-25T11:34:54.677Z,15.76
2023-02-25T11:37:26.151Z,16.01
2023-02-25T11:39:55.629Z,16.23
2023-02-25T11:42:26.194Z,16.42
2023-02-25T11:45:01.605Z,16.54
2023-02-25T11:47:33.195Z,16.63
2023-02-25T11:50:25.242Z,16.68
2023-02-25T11:53:31.598Z,16.80
2023-02-25T11:56:25.915Z,16.93
2023-02-25T11:59:25.078Z,16.99
2023-02-25T12:02:16.660Z,17.12
2023-02-25T12:05:00.506Z,17.25
2023-02-25T12:08:13.485Z,17.35
2023-02-25T12:11:17.286Z,17.38
2023-02-25T12:13:50.646Z,17.42
2023-02-25T12:16:44.602Z,17.42
2023-02-25T12:19:17.786Z,17.55
2023-02-25T12:22:12.723Z,17.55
2023-02-25T12:24:52.354Z,17.54
2023-02-25T12:27:47.757Z,17.58
2023-02-25T12:30:32.670Z,17.58
2023-02-25T12:33:08.590Z,17.76
2023-02-25T12:35:56.047Z,17.83
2023-02-25T12:38:26.296Z,17.74
2023-02-25T12:41:20.374Z,17.73
2023-02-25T12:43:55.297Z,17.74
2023-02-25T12:46:25.352Z,17.76
2023-02-25T12:49:14.243Z,17.78
2023-02-25T12:52:00.165Z,17.74
2023-02-25T12:54:58.402Z,17.84
2023-02-25T12:57:49.286Z,17.86
2023-02-25T13:00:47.012Z,17.83
2023-02-25T13:03:39.356Z,17.82
2023-02-25T13:06:26.992Z,17.80
2023-02-25T13:09:33.865Z,17.68
2023-02-25T13:12:26.976Z,17.47
2023-02-25T13:14:57.770Z,17.31
2023-02-25T13:17:35.056Z,17.10
2023-02-25T13:20:30.837Z,16.91
2023-02-25T13:23:16.977Z,16.68
2023-02-25T13:26:05.189Z,16.53
2023-02-25T13:28:40.229Z,16.59
2023-02-25T13:31:16.775Z,16.48
2023-02-25T13:33:56.238Z,16.48
2023-02-25T13:36:50.297Z,16.43
2023-02-25T13:39:45.594Z,16.41
2023-02-25T13:42:34.945Z,16.35
2023-02-25T13:45:29.833Z,16.29
2023-02-25T13:48:21.748Z,16.26
2023-02-25T13:51:25.970Z,16.23
2023-02-25T13:54:23.143Z,16.22
2023-02-25T13:57:05.151Z,16.22
2023-02-25T13:59:55.097Z,16.20
2023-02-25T14:03:00.682Z,16.16
2023-02-25T14:05:52.571Z,16.13
2023-02-25T14:08:29.512Z,16.06
2023-02-25T14:11:30.747Z,16.07
2023-02-25T14:14:17.039Z,16.03
2023-02-25T14:17:05.173Z,15.98
2023-02-25T14:19:52.736Z,15.90
2023-02-25T14:22:29.901Z,15.91
2023-02-25T14:25:06.124Z,15.93
2023-02-25T14:27:59.491Z,15.85
2023-02-25T14:31:10.674Z,15.73
2023-02-25T14:34:03.957Z,15.59
2023-02-25T14:37:04.142Z,15.54
2023-02-25T14:40:06.468Z,15.49
2023-02-25T14:42:39.862Z,15.47
2023-02-25T14:45:14.068Z,15.39
2023-02-25T14:48:00.982Z,15.34
2023-02-25T14:50:45.510Z,15.29
2023-02-25T14:53:34.683Z,15.26
2023-02-25T14:56:16.431Z,15.16
2023-02-25T14:58:44.600Z,15.16
2023-02-25T15:01:42.479Z,15.15
2023-02-25T15:04:30.889Z,15.10
2023-02-25T15:07:34.928Z,15.04
2023-02-25T15:10:24.618Z,14.94
2023-02-25T15:13:19.449Z,14.89
2023-02-25T15:16:25.066Z,14.77
2023-02-25T15:18:53.709Z,14.67
2023-02-25T15:21:38.982Z,14.56
2023-02-25T15:24:25.623Z,14.51
2023-02-25T15:26:54.425Z,14.39
2023-02-25T15:29:34.685Z,14.38
2023-02-25T15:32:30.288Z,14.32
2023-02-25T15:34:59.884Z,14.26
2023-02-25T15:37:31.846Z,14.23
2023-02-25T15:40:21.542Z,14.18
2023-02-25T15:42:53.708Z,13.70
2023-02-25T15:45:28.094Z,13.35
2023-02-25T15:48:08.008Z,13.03
2023-02-25T15:50:53.350Z,12.75
2023-02-25T15:53:25.726Z,12.60
2023-02-25T15:56:05.630Z,12.44
2023-02-25T15:58:34.075Z,12.32
2023-02-25T16:01:04.614Z,12.23
2023-02-25T16:03:35.595Z,12.16
2023-02-25T16:06:14.601Z,12.07
2023-02-25T16:09:06.616Z,12.02
2023-02-25T16:11:43.238Z,11.93
2023-02-25T16:14:30.703Z,11.86
2023-02-25T16:17:01.357Z,11.80
2023-02-25T16:19:36.183Z,11.79
2023-02-25T16:22:15.862Z,11.79
2023-02-25T16:24:50.931Z,11.77
2023-02-25T16:27:45.771Z,11.77
2023-02-25T16:30:30.358Z,11.73
2023-02-25T16:33:23.529Z,11.69
2023-02-25T16:36:08.575Z,11.71
2023-02-25T16:38:57.602Z,11.68
2023-02-25T16:41:38.665Z,11.65
2023-02-25T16:44:42.077Z,11.58
2023-02-25T16:47:26.220Z,11.48
2023-02-25T16:50:15.038Z,11.39
2023-02-25T16:52:51.697Z,11.31
2023-02-25T16:55:35.738Z,11.25
2023-02-25T16:58:19.216Z,11.18
2023-02-25T17:00:55.004Z,11.09
2023-02-25T17:03:27.867Z,11.03
2023-02-25T17:06:20.067Z,10.93
2023-02-25T17:08:51.645Z,10.83
2023-02-25T17:11:24.283Z,10.77
2023-02-25T17:13:55.463Z,10.67
2023-02-25T17:16:38.731Z,10.61
2023-02-25T17:19:11.220Z,10.60
2023-02-25T17:21:44.939Z,10.55
2023-02-25T17:24:17.748Z,10.54
2023-02-25T17:26:50.542Z,10.50
2023-02-25T17:29:21.333Z,10.45
2023-02-25T17:31:53.800Z,10.38
2023-02-25T17:34:38.129Z,10.27
2023-02-25T17:37:10.935Z,10.15
2023-02-25T17:39:40.637Z,10.00
2023-02-25T17:42:35.414Z,9.94
2023-02-25T17:45:27.772Z,9.84
2023-02-25T17:48:00.897Z,9.76
2023-02-25T17:50:36.217Z,9.70
2023-02-25T17:53:20.626Z,9.65
2023-02-25T17:55:51.961Z,9.56
2023-02-25T17:58:25.314Z,9.56
2023-02-25T18:01:06.819Z,9.59
2023-02-25T18:03:47.283Z,9.66
2023-02-25T18:06:45.419Z,9.69
2023-02-25T18:09:38.908Z,9.71
2023-02-25T18:12:24.942Z,9.76
2023-02-25T18:14:59.761Z,9.78
2023-02-25T18:17:37.672Z,9.83
2023-02-25T18:20:28.084Z,9.62
2023-02-25T18:22:59.566Z,9.08
2023-02-25T18:25:33.894Z,8.67
2023-02-25T18:28:03.291Z,8.29
2023-02-25T18:30:36.842Z,7.94
2023-02-25T18:33:13.661Z,7.76
2023-02-25T18:35:48.627Z,7.62
2023-02-25T18:38:26.075Z,7.57
2023-02-25T18:40:56.750Z,7.44
2023-02-25T18:43:33.811Z,7.36
2023-02-25T18:46:06.400Z,7.25
2023-02-25T18:48:35.970Z,7.20
2023-02-25T18:51:10.829Z,7.09
2023-02-25T18:53:40.216Z,7.01
2023-02-25T18:56:18.019Z,6.93
2023-02-25T18:58:45.677Z,6.85
2023-02-25T19:01:25.388Z,6.75
2023-02-25T19:04:00.817Z,6.63
2023-02-25T19:06:36.286Z,6.62
2023-02-25T19:09:04.959Z,6.56
2023-02-25T19:11:42.601Z,6.54
2023-02-25T19:14:19.795Z,6.50
2023-02-25T19:16:49.338Z,6.47
2023-02-25T19:19:16.715Z,6.43
2023-02-25T19:21:47.469Z,6.36
2023-02-25T19:24:16.482Z,6.39
2023-02-25T19:26:45.627Z,6.41
2023-02-25T19:29:13.860Z,6.36
2023-02-25T19:31:41.366Z,6.38
2023-02-25T19:34:09.911Z,6.39
2023-02-25T19:36:37.772Z,6.37
2023-02-25T19:39:06.624Z,6.38
2023-02-25T19:41:33.711Z,6.33
2023-02-25T19:44:00.508Z,6.35
2023-02-25T19:46:28.360Z,6.30
2023-02-25T19:48:55.893Z,6.33
2023-02-25T19:51:24.535Z,6.34
2023-02-25T19:53:52.761Z,6.34
2023-02-25T19:56:19.591Z,6.32
2023-02-25T19:58:47.641Z,6.30
2023-02-25T20:01:16.709Z,6.29
2023-02-25T20:03:45.159Z,6.27
2023-02-25T20:06:13.594Z,6.28
2023-02-25T20:08:42.261Z,6.25
2023-02-25T20:11:11.198Z,6.27
2023-02-25T20:13:39.544Z,6.28
2023-02-25T20:16:10.878Z,6.31
2023-02-25T20:18:39.697Z,6.31
2023-02-25T20:21:07.732Z,6.30
2023-02-25T20:23:34.730Z,6.31
2023-02-25T20:26:12.304Z,6.33
2023-02-25T20:28:40.571Z,6.31
2023-02-25T20:31:20.175Z,6.27
2023-02-25T20:33:53.275Z,6.26
2023-02-25T20:36:26.287Z,6.23
2023-02-25T20:39:12.968Z,6.26
2023-02-25T20:41:40.848Z,6.29
2023-02-25T20:44:08.775Z,6.28
2023-02-25T20:46:37.418Z,6.24
2023-02-25T20:49:06.830Z,6.17
2023-02-25T20:51:44.543Z,6.11
2023-02-25T20:54:15.151Z,6.07
2023-02-25T20:56:43.359Z,6.01
2023-02-25T20:59:12.632Z,5.98
2023-02-25T21:01:41.442Z,5.94
2023-02-25T21:04:10.053Z,5.91
2023-02-25T21:06:38.702Z,5.88
2023-02-25T21:09:06.617Z,5.82
2023-02-25T21:11:35.622Z,5.79
2023-02-25T21:14:08.501Z,5.78
2023-02-25T21:16:37.781Z,5.80
2023-02-25T21:19:05.609Z,5.77
2023-02-25T21:21:37.001Z,5.76
2023-02-25T21:24:07.793Z,5.80
2023-02-25T21:26:38.580Z,5.78
2023-02-25T21:29:06.670Z,5.71
2023-02-25T21:31:33.879Z,5.72
2023-02-25T21:34:02.294Z,5.74
2023-02-25T21:36:30.114Z,5.74
2023-02-25T21:38:57.948Z,5.73
2023-02-25T21:41:28.337Z,5.74
2023-02-25T21:43:58.123Z,5.73
2023-02-25T21:46:27.699Z,5.71
2023-02-25T21:48:56.035Z,5.72
2023-02-25T21:51:25.643Z,5.73
2023-02-25T21:53:56.980Z,5.76
2023-02-25T21:56:25.733Z,5.76
2023-02-25T21:58:55.640Z,5.81
2023-02-25T22:01:32.137Z,5.83
2023-02-25T22:04:00.214Z,5.88
2023-02-25T22:06:28.213Z,5.84
2023-02-25T22:08:57.085Z,5.82
2023-02-25T22:11:28.469Z,5.86
2023-02-25T22:13:57.982Z,5.85
2023-02-25T22:16:26.121Z,5.82
2023-02-25T22:18:54.062Z,5.80
2023-02-25T22:21:24.120Z,5.77
2023-02-25T22:23:52.802Z,5.77
2023-02-25T22:26:23.134Z,5.77
2023-02-25T22:28:56.051Z,5.81
2023-02-25T22:31:24.203Z,5.88
2023-02-25T22:33:51.437Z,5.83
2023-02-25T22:36:19.082Z,5.77
2023-02-25T22:38:47.095Z,5.79
2023-02-25T22:41:16.855Z,5.76
2023-02-25T22:43:45.024Z,5.77
2023-02-25T22:46:16.224Z,5.75
2023-02-25T22:48:45.246Z,5.71
2023-02-25T22:51:13.401Z,5.68
2023-02-25T22:53:40.951Z,5.64
2023-02-25T22:56:09.912Z,5.62
2023-02-25T22:58:40.762Z,5.64
2023-02-25T23:01:10.062Z,5.66
2023-02-25T23:03:43.181Z,5.64
2023-02-25T23:06:12.230Z,5.62
2023-02-25T23:08:40.219Z,5.64
2023-02-25T23:11:12.050Z,5.62
2023-02-25T23:13:49.568Z,5.61
2023-02-25T23:16:20.714Z,5.61
2023-02-25T23:18:49.001Z,5.61
2023-02-25T23:21:19.136Z,5.62
2023-02-25T23:23:51.921Z,5.65
2023-02-25T23:26:22.251Z,5.67
2023-02-25T23:28:53.952Z,5.66
2023-02-25T23:31:27.840Z,5.66
2023-02-25T23:34:04.448Z,5.67
2023-02-25T23:36:32.638Z,5.65
2023-02-25T23:39:00.520Z,5.64
2023-02-25T23:41:29.300Z,5.57
2023-02-25T23:44:00.199Z,5.60
2023-02-25T23:46:29.554Z,5.62
2023-02-25T23:48:59.953Z,5.60
2023-02-25T23:51:28.172Z,5.57
2023-02-25T23:53:57.587Z,5.52
2023-02-25T23:56:26.585Z,5.44
2023-02-25T23:58:54.178Z,5.39
